sensor_id;sensor_type;location;lat;lon;timestamp;temperature;humidity
67273;DHT22;54190;49.770;9.250;2022-08-01T00:00:27;20.20;99.90
67273;DHT22;54190;49.770;9.250;2022-08-01T00:02:53;20.20;99.90
67273;DHT22;54190;49.770;9.250;2022-08-01T00:05:19;20.20;99.90
67273;DHT22;54190;49.770;9.250;2022-08-01T00:07:44;20.10;99.90
67273;DHT22;54190;49.770;9.250;2022-08-01T00:10:12;20.00;99.90
67273;DHT22;54190;49.770;9.250;2022-08-01T00:12:39;20.00;99.90
67273;DHT22;54190;49.770;9.250;2022-08-01T00:15:07;19.90;99.90
67273;DHT22;54190;49.770;9.250;2022-08-01T00:17:33;19.80;99.90
67273;DHT22;54190;49.770;9.250;2022-08-01T00:19:59;19.70;99.90
67273;DHT22;54190;49.770;9.250;2022-08-01T00:22:25;19.70;99.90
67273;DHT22;54190;49.770;9.250;2022-08-01T00:24:50;19.70;99.90
67273;DHT22;54190;49.770;9.250;2022-08-01T00:27:16;19.60;99.90
67273;DHT22;54190;49.770;9.250;2022-08-01T00:29:42;19.60;99.90
67273;DHT22;54190;49.770;9.250;2022-08-01T00:32:08;19.60;99.90
67273;DHT22;54190;49.770;9.250;2022-08-01T00:34:34;19.70;99.90
67273;DHT22;54190;49.770;9.250;2022-08-01T00:36:59;19.60;99.90
67273;DHT22;54190;49.770;9.250;2022-08-01T00:39:25;19.60;99.90
67273;DHT22;54190;49.770;9.250;2022-08-01T00:41:51;19.60;99.90
67273;DHT22;54190;49.770;9.250;2022-08-01T00:44:16;19.60;99.90
67273;DHT22;54190;49.770;9.250;2022-08-01T00:46:42;19.60;99.90
67273;DHT22;54190;49.770;9.250;2022-08-01T00:49:08;19.50;99.90
67273;DHT22;54190;49.770;9.250;2022-08-01T00:51:34;19.40;99.90
67273;DHT22;54190;49.770;9.250;2022-08-01T00:54:00;19.40;99.90
67273;DHT22;54190;49.770;9.250;2022-08-01T00:56:27;19.40;99.90
67273;DHT22;54190;49.770;9.250;2022-08-01T00:58:54;19.30;99.90
67273;DHT22;54190;49.770;9.250;2022-08-01T01:01:21;19.40;99.90
67273;DHT22;54190;49.770;9.250;2022-08-01T01:03:51;19.30;99.90
67273;DHT22;54190;49.770;9.250;2022-08-01T01:14:46;19.40;99.90
67273;DHT22;54190;49.770;9.250;2022-08-01T01:17:19;19.30;99.90
67273;DHT22;54190;49.770;9.250;2022-08-01T01:19:51;19.20;99.90
67273;DHT22;54190;49.770;9.250;2022-08-01T01:22:46;19.10;99.90
67273;DHT22;54190;49.770;9.250;2022-08-01T01:25:24;19.00;99.90
67273;DHT22;54190;49.770;9.250;2022-08-01T01:28:29;18.90;99.90
67273;DHT22;54190;49.770;9.250;2022-08-01T01:30:58;18.90;99.90
67273;DHT22;54190;49.770;9.250;2022-08-01T01:33:26;18.80;99.90
67273;DHT22;54190;49.770;9.250;2022-08-01T01:35:59;18.80;99.90
67273;DHT22;54190;49.770;9.250;2022-08-01T01:38:29;18.80;99.90
67273;DHT22;54190;49.770;9.250;2022-08-01T01:40:57;18.80;99.90
67273;DHT22;54190;49.770;9.250;2022-08-01T01:43:24;18.90;99.90
67273;DHT22;54190;49.770;9.250;2022-08-01T01:45:52;18.80;99.90
67273;DHT22;54190;49.770;9.250;2022-08-01T01:48:20;18.80;99.90
67273;DHT22;54190;49.770;9.250;2022-08-01T01:50:47;18.80;99.90
67273;DHT22;54190;49.770;9.250;2022-08-01T01:53:15;18.80;99.90
67273;DHT22;54190;49.770;9.250;2022-08-01T01:55:45;18.70;99.90
67273;DHT22;54190;49.770;9.250;2022-08-01T01:58:13;18.70;99.90
67273;DHT22;54190;49.770;9.250;2022-08-01T02:00:43;18.50;99.90
67273;DHT22;54190;49.770;9.250;2022-08-01T02:03:11;18.50;99.90
67273;DHT22;54190;49.770;9.250;2022-08-01T02:05:38;18.50;99.90
67273;DHT22;54190;49.770;9.250;2022-08-01T02:08:05;18.40;99.90
67273;DHT22;54190;49.770;9.250;2022-08-01T02:10:33;18.50;99.90
67273;DHT22;54190;49.770;9.250;2022-08-01T02:13:02;18.50;99.90
67273;DHT22;54190;49.770;9.250;2022-08-01T02:15:31;18.60;99.90
67273;DHT22;54190;49.770;9.250;2022-08-01T02:17:57;18.50;99.90
67273;DHT22;54190;49.770;9.250;2022-08-01T02:20:24;18.50;99.90
67273;DHT22;54190;49.770;9.250;2022-08-01T02:23:06;18.50;99.90
67273;DHT22;54190;49.770;9.250;2022-08-01T02:25:38;18.50;99.90
67273;DHT22;54190;49.770;9.250;2022-08-01T02:28:13;18.50;99.90
67273;DHT22;54190;49.770;9.250;2022-08-01T02:30:44;18.50;99.90
67273;DHT22;54190;49.770;9.250;2022-08-01T02:33:20;18.50;99.90
67273;DHT22;54190;49.770;9.250;2022-08-01T02:35:51;18.50;99.90
67273;DHT22;54190;49.770;9.250;2022-08-01T02:38:18;18.50;99.90
67273;DHT22;54190;49.770;9.250;2022-08-01T02:40:47;18.50;99.90
67273;DHT22;54190;49.770;9.250;2022-08-01T02:43:18;18.50;99.90
67273;DHT22;54190;49.770;9.250;2022-08-01T02:45:50;18.50;99.90
67273;DHT22;54190;49.770;9.250;2022-08-01T02:48:18;18.50;99.90
67273;DHT22;54190;49.770;9.250;2022-08-01T02:50:46;18.60;99.90
67273;DHT22;54190;49.770;9.250;2022-08-01T02:53:13;18.60;99.90
67273;DHT22;54190;49.770;9.250;2022-08-01T02:55:40;18.50;99.90
67273;DHT22;54190;49.770;9.250;2022-08-01T02:58:09;18.40;99.90
67273;DHT22;54190;49.770;9.250;2022-08-01T03:00:37;18.30;99.90
67273;DHT22;54190;49.770;9.250;2022-08-01T03:03:06;18.30;99.90
67273;DHT22;54190;49.770;9.250;2022-08-01T03:05:33;18.30;99.90
67273;DHT22;54190;49.770;9.250;2022-08-01T03:08:00;18.20;99.90
67273;DHT22;54190;49.770;9.250;2022-08-01T03:10:28;18.20;99.90
67273;DHT22;54190;49.770;9.250;2022-08-01T03:12:55;18.20;99.90
67273;DHT22;54190;49.770;9.250;2022-08-01T03:15:23;18.10;99.90
67273;DHT22;54190;49.770;9.250;2022-08-01T03:17:51;18.20;99.90
67273;DHT22;54190;49.770;9.250;2022-08-01T03:20:19;18.30;99.90
67273;DHT22;54190;49.770;9.250;2022-08-01T03:22:47;18.30;99.90
67273;DHT22;54190;49.770;9.250;2022-08-01T03:25:15;18.30;99.90
67273;DHT22;54190;49.770;9.250;2022-08-01T03:27:43;18.40;99.90
67273;DHT22;54190;49.770;9.250;2022-08-01T03:30:11;18.30;99.90
67273;DHT22;54190;49.770;9.250;2022-08-01T03:32:38;18.30;99.90
67273;DHT22;54190;49.770;9.250;2022-08-01T03:35:04;18.30;99.90
67273;DHT22;54190;49.770;9.250;2022-08-01T03:37:45;18.30;99.90
67273;DHT22;54190;49.770;9.250;2022-08-01T03:40:20;18.30;99.90
67273;DHT22;54190;49.770;9.250;2022-08-01T03:42:56;18.30;99.90
67273;DHT22;54190;49.770;9.250;2022-08-01T03:45:30;18.30;99.90
67273;DHT22;54190;49.770;9.250;2022-08-01T03:48:05;18.30;99.90
67273;DHT22;54190;49.770;9.250;2022-08-01T03:50:33;18.30;99.90
67273;DHT22;54190;49.770;9.250;2022-08-01T03:53:01;18.30;99.90
67273;DHT22;54190;49.770;9.250;2022-08-01T03:55:28;18.30;99.90
67273;DHT22;54190;49.770;9.250;2022-08-01T03:57:55;18.20;99.90
67273;DHT22;54190;49.770;9.250;2022-08-01T04:00:22;18.20;99.90
67273;DHT22;54190;49.770;9.250;2022-08-01T04:02:49;18.30;99.90
67273;DHT22;54190;49.770;9.250;2022-08-01T04:05:16;18.30;99.90
67273;DHT22;54190;49.770;9.250;2022-08-01T04:07:46;18.30;99.90
67273;DHT22;54190;49.770;9.250;2022-08-01T04:10:13;18.30;99.90
67273;DHT22;54190;49.770;9.250;2022-08-01T04:12:38;18.40;99.90
67273;DHT22;54190;49.770;9.250;2022-08-01T04:15:05;18.40;99.90
67273;DHT22;54190;49.770;9.250;2022-08-01T04:17:31;18.40;99.90
67273;DHT22;54190;49.770;9.250;2022-08-01T04:19:57;18.40;99.90
67273;DHT22;54190;49.770;9.250;2022-08-01T04:22:22;18.50;99.90
67273;DHT22;54190;49.770;9.250;2022-08-01T04:24:51;18.50;99.90
67273;DHT22;54190;49.770;9.250;2022-08-01T04:27:26;18.50;99.90
67273;DHT22;54190;49.770;9.250;2022-08-01T04:29:58;18.60;99.90
67273;DHT22;54190;49.770;9.250;2022-08-01T04:32:26;18.60;99.90
67273;DHT22;54190;49.770;9.250;2022-08-01T04:34:55;18.50;99.90
67273;DHT22;54190;49.770;9.250;2022-08-01T04:37:23;18.50;99.90
67273;DHT22;54190;49.770;9.250;2022-08-01T04:39:52;18.60;99.90
67273;DHT22;54190;49.770;9.250;2022-08-01T04:42:20;18.60;99.90
67273;DHT22;54190;49.770;9.250;2022-08-01T04:44:46;18.60;99.90
67273;DHT22;54190;49.770;9.250;2022-08-01T04:47:13;18.70;99.90
67273;DHT22;54190;49.770;9.250;2022-08-01T04:49:39;18.80;99.90
67273;DHT22;54190;49.770;9.250;2022-08-01T04:52:06;18.70;99.90
67273;DHT22;54190;49.770;9.250;2022-08-01T04:54:34;18.70;99.90
67273;DHT22;54190;49.770;9.250;2022-08-01T04:57:04;18.80;99.90
67273;DHT22;54190;49.770;9.250;2022-08-01T04:59:32;18.80;99.90
67273;DHT22;54190;49.770;9.250;2022-08-01T05:02:11;18.80;99.90
67273;DHT22;54190;49.770;9.250;2022-08-01T05:04:38;18.80;99.90
67273;DHT22;54190;49.770;9.250;2022-08-01T05:07:05;18.80;99.90
67273;DHT22;54190;49.770;9.250;2022-08-01T05:09:31;18.90;99.90
67273;DHT22;54190;49.770;9.250;2022-08-01T05:11:58;18.90;99.90
67273;DHT22;54190;49.770;9.250;2022-08-01T05:14:28;18.90;99.90
67273;DHT22;54190;49.770;9.250;2022-08-01T05:16:58;19.00;99.90
67273;DHT22;54190;49.770;9.250;2022-08-01T05:19:24;19.00;99.90
67273;DHT22;54190;49.770;9.250;2022-08-01T05:21:50;19.10;99.90
67273;DHT22;54190;49.770;9.250;2022-08-01T05:24:16;19.10;99.90
67273;DHT22;54190;49.770;9.250;2022-08-01T05:26:42;19.10;99.90
67273;DHT22;54190;49.770;9.250;2022-08-01T05:29:07;19.10;99.90
67273;DHT22;54190;49.770;9.250;2022-08-01T05:31:33;19.10;99.90
67273;DHT22;54190;49.770;9.250;2022-08-01T05:34:01;19.20;99.90
67273;DHT22;54190;49.770;9.250;2022-08-01T05:36:27;19.20;99.90
67273;DHT22;54190;49.770;9.250;2022-08-01T05:38:53;19.30;99.90
67273;DHT22;54190;49.770;9.250;2022-08-01T05:41:19;19.30;99.90
67273;DHT22;54190;49.770;9.250;2022-08-01T05:43:45;19.30;99.90
67273;DHT22;54190;49.770;9.250;2022-08-01T05:46:11;19.40;99.90
67273;DHT22;54190;49.770;9.250;2022-08-01T05:48:36;19.40;99.90
67273;DHT22;54190;49.770;9.250;2022-08-01T05:51:02;19.50;99.90
67273;DHT22;54190;49.770;9.250;2022-08-01T05:53:28;19.50;99.90
67273;DHT22;54190;49.770;9.250;2022-08-01T05:55:54;19.60;99.90
67273;DHT22;54190;49.770;9.250;2022-08-01T05:58:20;19.60;99.90
67273;DHT22;54190;49.770;9.250;2022-08-01T06:00:46;19.70;99.90
67273;DHT22;54190;49.770;9.250;2022-08-01T06:03:12;19.80;99.90
67273;DHT22;54190;49.770;9.250;2022-08-01T06:05:37;19.80;99.90
67273;DHT22;54190;49.770;9.250;2022-08-01T06:08:03;19.90;99.90
67273;DHT22;54190;49.770;9.250;2022-08-01T06:10:29;19.90;99.90
67273;DHT22;54190;49.770;9.250;2022-08-01T06:12:55;20.00;99.90
67273;DHT22;54190;49.770;9.250;2022-08-01T06:15:21;20.00;99.90
67273;DHT22;54190;49.770;9.250;2022-08-01T06:17:46;20.10;99.90
67273;DHT22;54190;49.770;9.250;2022-08-01T06:20:12;20.10;99.90
67273;DHT22;54190;49.770;9.250;2022-08-01T06:22:38;20.10;99.90
67273;DHT22;54190;49.770;9.250;2022-08-01T06:25:04;20.20;99.90
67273;DHT22;54190;49.770;9.250;2022-08-01T06:27:30;20.30;99.90
67273;DHT22;54190;49.770;9.250;2022-08-01T06:29:56;20.40;99.90
67273;DHT22;54190;49.770;9.250;2022-08-01T06:32:22;20.50;99.90
67273;DHT22;54190;49.770;9.250;2022-08-01T06:34:48;20.60;99.90
67273;DHT22;54190;49.770;9.250;2022-08-01T06:37:14;20.70;99.90
67273;DHT22;54190;49.770;9.250;2022-08-01T06:39:41;20.80;99.90
67273;DHT22;54190;49.770;9.250;2022-08-01T06:42:06;20.90;99.90
67273;DHT22;54190;49.770;9.250;2022-08-01T06:44:32;21.00;99.90
67273;DHT22;54190;49.770;9.250;2022-08-01T06:46:58;21.00;99.90
67273;DHT22;54190;49.770;9.250;2022-08-01T06:49:24;21.10;99.90
67273;DHT22;54190;49.770;9.250;2022-08-01T06:51:50;21.10;99.90
67273;DHT22;54190;49.770;9.250;2022-08-01T06:54:16;21.10;99.90
67273;DHT22;54190;49.770;9.250;2022-08-01T06:56:42;21.20;99.90
67273;DHT22;54190;49.770;9.250;2022-08-01T06:59:08;21.30;99.90
67273;DHT22;54190;49.770;9.250;2022-08-01T07:01:34;21.30;99.90
67273;DHT22;54190;49.770;9.250;2022-08-01T07:04:00;21.30;99.90
67273;DHT22;54190;49.770;9.250;2022-08-01T07:06:26;21.40;99.90
67273;DHT22;54190;49.770;9.250;2022-08-01T07:08:55;21.30;99.90
67273;DHT22;54190;49.770;9.250;2022-08-01T07:11:23;21.50;99.90
67273;DHT22;54190;49.770;9.250;2022-08-01T07:13:48;21.50;99.90
67273;DHT22;54190;49.770;9.250;2022-08-01T07:16:15;21.40;99.90
67273;DHT22;54190;49.770;9.250;2022-08-01T07:18:41;21.40;99.90
67273;DHT22;54190;49.770;9.250;2022-08-01T07:21:07;21.40;99.90
67273;DHT22;54190;49.770;9.250;2022-08-01T07:23:33;21.40;99.90
67273;DHT22;54190;49.770;9.250;2022-08-01T07:25:59;21.40;99.90
67273;DHT22;54190;49.770;9.250;2022-08-01T07:28:28;21.50;99.90
67273;DHT22;54190;49.770;9.250;2022-08-01T07:30:53;21.60;99.90
67273;DHT22;54190;49.770;9.250;2022-08-01T07:33:19;21.60;99.90
67273;DHT22;54190;49.770;9.250;2022-08-01T07:35:45;21.60;99.90
67273;DHT22;54190;49.770;9.250;2022-08-01T07:38:11;21.70;99.90
67273;DHT22;54190;49.770;9.250;2022-08-01T07:40:37;21.70;99.90
67273;DHT22;54190;49.770;9.250;2022-08-01T07:43:03;21.80;99.90
67273;DHT22;54190;49.770;9.250;2022-08-01T07:45:30;21.80;99.90
67273;DHT22;54190;49.770;9.250;2022-08-01T07:47:55;21.90;99.90
67273;DHT22;54190;49.770;9.250;2022-08-01T07:50:21;21.90;99.90
67273;DHT22;54190;49.770;9.250;2022-08-01T07:52:47;22.00;99.90
67273;DHT22;54190;49.770;9.250;2022-08-01T07:55:13;21.90;99.90
67273;DHT22;54190;49.770;9.250;2022-08-01T07:57:38;22.00;99.90
67273;DHT22;54190;49.770;9.250;2022-08-01T08:00:05;22.10;99.90
67273;DHT22;54190;49.770;9.250;2022-08-01T08:02:34;22.20;99.90
67273;DHT22;54190;49.770;9.250;2022-08-01T08:05:01;22.20;99.90
67273;DHT22;54190;49.770;9.250;2022-08-01T08:07:27;22.20;99.90
67273;DHT22;54190;49.770;9.250;2022-08-01T08:09:52;22.20;99.90
67273;DHT22;54190;49.770;9.250;2022-08-01T08:12:18;22.30;99.90
67273;DHT22;54190;49.770;9.250;2022-08-01T08:14:44;22.30;99.90
67273;DHT22;54190;49.770;9.250;2022-08-01T08:17:09;22.30;99.90
67273;DHT22;54190;49.770;9.250;2022-08-01T08:19:35;22.40;99.90
67273;DHT22;54190;49.770;9.250;2022-08-01T08:22:03;22.50;99.90
67273;DHT22;54190;49.770;9.250;2022-08-01T08:24:29;22.70;99.90
67273;DHT22;54190;49.770;9.250;2022-08-01T08:26:56;23.00;99.90
67273;DHT22;54190;49.770;9.250;2022-08-01T08:29:23;23.30;99.80
67273;DHT22;54190;49.770;9.250;2022-08-01T08:31:51;23.50;99.30
67273;DHT22;54190;49.770;9.250;2022-08-01T08:34:17;23.40;99.70
67273;DHT22;54190;49.770;9.250;2022-08-01T08:36:43;23.30;99.00
67273;DHT22;54190;49.770;9.250;2022-08-01T08:39:09;23.40;99.90
67273;DHT22;54190;49.770;9.250;2022-08-01T08:41:35;23.20;99.40
67273;DHT22;54190;49.770;9.250;2022-08-01T08:44:02;23.30;99.40
67273;DHT22;54190;49.770;9.250;2022-08-01T08:46:28;23.40;99.30
67273;DHT22;54190;49.770;9.250;2022-08-01T08:48:55;23.20;99.40
67273;DHT22;54190;49.770;9.250;2022-08-01T08:51:23;23.10;99.90
67273;DHT22;54190;49.770;9.250;2022-08-01T08:53:54;23.20;99.90
67273;DHT22;54190;49.770;9.250;2022-08-01T08:56:21;23.20;99.60
67273;DHT22;54190;49.770;9.250;2022-08-01T08:58:48;23.30;99.40
67273;DHT22;54190;49.770;9.250;2022-08-01T09:01:15;23.20;99.30
67273;DHT22;54190;49.770;9.250;2022-08-01T09:03:44;23.20;99.90
67273;DHT22;54190;49.770;9.250;2022-08-01T09:06:10;23.20;99.80
67273;DHT22;54190;49.770;9.250;2022-08-01T09:08:36;23.20;99.90
67273;DHT22;54190;49.770;9.250;2022-08-01T09:11:02;23.40;99.90
67273;DHT22;54190;49.770;9.250;2022-08-01T09:13:28;23.70;99.90
67273;DHT22;54190;49.770;9.250;2022-08-01T09:15:56;23.90;99.70
67273;DHT22;54190;49.770;9.250;2022-08-01T09:18:39;24.20;98.80
67273;DHT22;54190;49.770;9.250;2022-08-01T09:23:49;24.20;98.60
67273;DHT22;54190;49.770;9.250;2022-08-01T09:26:18;24.30;98.80
67273;DHT22;54190;49.770;9.250;2022-08-01T09:28:45;24.50;98.30
67273;DHT22;54190;49.770;9.250;2022-08-01T09:31:17;24.50;98.10
67273;DHT22;54190;49.770;9.250;2022-08-01T09:34:01;24.40;98.20
67273;DHT22;54190;49.770;9.250;2022-08-01T09:36:54;24.40;97.30
67273;DHT22;54190;49.770;9.250;2022-08-01T09:39:25;24.50;97.90
67273;DHT22;54190;49.770;9.250;2022-08-01T09:41:52;24.60;97.60
67273;DHT22;54190;49.770;9.250;2022-08-01T09:44:19;24.70;97.80
67273;DHT22;54190;49.770;9.250;2022-08-01T09:46:55;24.70;97.50
67273;DHT22;54190;49.770;9.250;2022-08-01T09:49:36;24.80;96.60
67273;DHT22;54190;49.770;9.250;2022-08-01T09:52:15;24.90;96.50
67273;DHT22;54190;49.770;9.250;2022-08-01T09:54:43;25.20;97.00
67273;DHT22;54190;49.770;9.250;2022-08-01T09:57:17;25.30;96.20
67273;DHT22;54190;49.770;9.250;2022-08-01T09:59:49;25.60;95.50
67273;DHT22;54190;49.770;9.250;2022-08-01T10:02:37;25.60;94.70
67273;DHT22;54190;49.770;9.250;2022-08-01T10:05:05;25.80;94.70
67273;DHT22;54190;49.770;9.250;2022-08-01T10:07:31;25.70;94.50
67273;DHT22;54190;49.770;9.250;2022-08-01T10:10:12;25.70;94.60
67273;DHT22;54190;49.770;9.250;2022-08-01T10:12:39;25.50;94.60
67273;DHT22;54190;49.770;9.250;2022-08-01T10:15:06;25.30;95.00
67273;DHT22;54190;49.770;9.250;2022-08-01T10:17:33;25.30;95.10
67273;DHT22;54190;49.770;9.250;2022-08-01T10:20:02;25.10;95.30
67273;DHT22;54190;49.770;9.250;2022-08-01T10:22:31;25.10;95.40
67273;DHT22;54190;49.770;9.250;2022-08-01T10:24:57;25.20;95.90
67273;DHT22;54190;49.770;9.250;2022-08-01T10:27:29;25.30;95.10
67273;DHT22;54190;49.770;9.250;2022-08-01T10:29:58;25.30;94.50
67273;DHT22;54190;49.770;9.250;2022-08-01T10:32:34;25.30;94.60
67273;DHT22;54190;49.770;9.250;2022-08-01T10:35:02;25.20;94.90
67273;DHT22;54190;49.770;9.250;2022-08-01T10:37:29;25.10;94.50
67273;DHT22;54190;49.770;9.250;2022-08-01T10:39:55;25.10;94.20
67273;DHT22;54190;49.770;9.250;2022-08-01T10:42:22;25.20;94.60
67273;DHT22;54190;49.770;9.250;2022-08-01T10:44:48;25.30;94.30
67273;DHT22;54190;49.770;9.250;2022-08-01T10:47:17;25.30;95.50
67273;DHT22;54190;49.770;9.250;2022-08-01T10:49:48;25.50;95.00
67273;DHT22;54190;49.770;9.250;2022-08-01T10:52:17;25.70;94.30
67273;DHT22;54190;49.770;9.250;2022-08-01T10:54:43;25.80;94.30
67273;DHT22;54190;49.770;9.250;2022-08-01T10:57:08;25.90;94.40
67273;DHT22;54190;49.770;9.250;2022-08-01T10:59:50;25.90;93.80
67273;DHT22;54190;49.770;9.250;2022-08-01T11:02:31;25.90;93.60
67273;DHT22;54190;49.770;9.250;2022-08-01T11:07:48;25.90;94.30
67273;DHT22;54190;49.770;9.250;2022-08-01T11:10:23;26.20;92.60
67273;DHT22;54190;49.770;9.250;2022-08-01T11:12:50;26.30;93.40
67273;DHT22;54190;49.770;9.250;2022-08-01T11:15:17;26.50;92.50
67273;DHT22;54190;49.770;9.250;2022-08-01T11:17:50;26.60;91.20
67273;DHT22;54190;49.770;9.250;2022-08-01T11:20:24;26.40;91.50
67273;DHT22;54190;49.770;9.250;2022-08-01T11:28:24;26.60;92.90
67273;DHT22;54190;49.770;9.250;2022-08-01T11:38:45;27.20;92.60
67273;DHT22;54190;49.770;9.250;2022-08-01T11:41:25;27.30;90.30
67273;DHT22;54190;49.770;9.250;2022-08-01T11:44:02;27.40;88.10
67273;DHT22;54190;49.770;9.250;2022-08-01T11:46:47;27.20;88.80
67273;DHT22;54190;49.770;9.250;2022-08-01T11:51:59;26.90;90.30
67273;DHT22;54190;49.770;9.250;2022-08-01T11:54:27;26.70;89.80
67273;DHT22;54190;49.770;9.250;2022-08-01T11:56:57;26.60;88.80
67273;DHT22;54190;49.770;9.250;2022-08-01T11:59:23;26.50;88.50
67273;DHT22;54190;49.770;9.250;2022-08-01T12:01:49;26.50;88.70
67273;DHT22;54190;49.770;9.250;2022-08-01T12:04:15;26.40;89.10
67273;DHT22;54190;49.770;9.250;2022-08-01T12:06:41;26.30;90.30
67273;DHT22;54190;49.770;9.250;2022-08-01T12:09:20;26.40;90.30
67273;DHT22;54190;49.770;9.250;2022-08-01T12:11:47;26.40;89.80
67273;DHT22;54190;49.770;9.250;2022-08-01T12:14:20;26.40;89.80
67273;DHT22;54190;49.770;9.250;2022-08-01T12:16:53;26.30;90.30
67273;DHT22;54190;49.770;9.250;2022-08-01T12:19:21;26.40;89.90
67273;DHT22;54190;49.770;9.250;2022-08-01T12:22:11;26.40;89.40
67273;DHT22;54190;49.770;9.250;2022-08-01T12:24:40;26.30;89.50
67273;DHT22;54190;49.770;9.250;2022-08-01T12:27:07;26.30;88.60
67273;DHT22;54190;49.770;9.250;2022-08-01T12:29:37;26.30;90.30
67273;DHT22;54190;49.770;9.250;2022-08-01T12:32:03;26.20;89.60
67273;DHT22;54190;49.770;9.250;2022-08-01T12:34:30;26.20;89.00
67273;DHT22;54190;49.770;9.250;2022-08-01T12:36:58;26.20;90.30
67273;DHT22;54190;49.770;9.250;2022-08-01T12:39:34;26.20;89.60
67273;DHT22;54190;49.770;9.250;2022-08-01T12:42:00;26.40;92.10
67273;DHT22;54190;49.770;9.250;2022-08-01T12:44:28;26.70;90.30
67273;DHT22;54190;49.770;9.250;2022-08-01T12:46:55;26.90;88.60
67273;DHT22;54190;49.770;9.250;2022-08-01T12:49:22;27.10;87.70
67273;DHT22;54190;49.770;9.250;2022-08-01T12:51:49;27.20;84.30
67273;DHT22;54190;49.770;9.250;2022-08-01T12:54:16;27.30;83.50
67273;DHT22;54190;49.770;9.250;2022-08-01T12:56:42;27.20;83.20
67273;DHT22;54190;49.770;9.250;2022-08-01T12:59:22;27.20;84.20
67273;DHT22;54190;49.770;9.250;2022-08-01T13:01:53;27.10;83.90
67273;DHT22;54190;49.770;9.250;2022-08-01T13:04:20;27.20;82.50
67273;DHT22;54190;49.770;9.250;2022-08-01T13:06:47;27.10;83.20
67273;DHT22;54190;49.770;9.250;2022-08-01T13:09:14;26.90;83.80
67273;DHT22;54190;49.770;9.250;2022-08-01T13:11:41;26.90;83.50
67273;DHT22;54190;49.770;9.250;2022-08-01T13:14:06;26.70;84.20
67273;DHT22;54190;49.770;9.250;2022-08-01T13:16:32;26.70;82.90
67273;DHT22;54190;49.770;9.250;2022-08-01T13:19:10;26.60;84.20
67273;DHT22;54190;49.770;9.250;2022-08-01T13:21:36;26.50;87.70
67273;DHT22;54190;49.770;9.250;2022-08-01T13:24:09;26.60;86.90
67273;DHT22;54190;49.770;9.250;2022-08-01T13:26:42;26.60;88.20
67273;DHT22;54190;49.770;9.250;2022-08-01T13:29:09;26.80;86.40
67273;DHT22;54190;49.770;9.250;2022-08-01T13:31:36;27.00;83.30
67273;DHT22;54190;49.770;9.250;2022-08-01T13:34:02;27.20;82.10
67273;DHT22;54190;49.770;9.250;2022-08-01T13:36:28;27.10;83.10
67273;DHT22;54190;49.770;9.250;2022-08-01T13:38:55;27.10;80.50
67273;DHT22;54190;49.770;9.250;2022-08-01T13:41:40;27.20;84.10
67273;DHT22;54190;49.770;9.250;2022-08-01T13:44:05;27.40;85.40
67273;DHT22;54190;49.770;9.250;2022-08-01T13:46:34;27.60;82.60
67273;DHT22;54190;49.770;9.250;2022-08-01T13:49:01;27.70;81.00
67273;DHT22;54190;49.770;9.250;2022-08-01T13:51:27;27.90;77.80
67273;DHT22;54190;49.770;9.250;2022-08-01T13:53:53;27.80;80.40
67273;DHT22;54190;49.770;9.250;2022-08-01T13:56:18;27.80;81.40
67273;DHT22;54190;49.770;9.250;2022-08-01T13:58:45;27.70;79.20
67273;DHT22;54190;49.770;9.250;2022-08-01T14:01:11;27.80;81.30
67273;DHT22;54190;49.770;9.250;2022-08-01T14:03:37;28.00;78.30
67273;DHT22;54190;49.770;9.250;2022-08-01T14:06:03;28.10;77.70
67273;DHT22;54190;49.770;9.250;2022-08-01T14:08:29;28.10;81.90
67273;DHT22;54190;49.770;9.250;2022-08-01T14:10:55;28.10;78.90
67273;DHT22;54190;49.770;9.250;2022-08-01T14:13:24;28.30;77.90
67273;DHT22;54190;49.770;9.250;2022-08-01T14:15:51;28.50;78.40
67273;DHT22;54190;49.770;9.250;2022-08-01T14:18:16;28.60;73.50
67273;DHT22;54190;49.770;9.250;2022-08-01T14:20:43;28.50;75.50
67273;DHT22;54190;49.770;9.250;2022-08-01T14:23:09;28.50;74.80
67273;DHT22;54190;49.770;9.250;2022-08-01T14:25:36;28.40;74.60
67273;DHT22;54190;49.770;9.250;2022-08-01T14:28:03;28.50;75.00
67273;DHT22;54190;49.770;9.250;2022-08-01T14:30:29;28.60;75.30
67273;DHT22;54190;49.770;9.250;2022-08-01T14:32:55;28.70;71.10
67273;DHT22;54190;49.770;9.250;2022-08-01T14:35:21;28.60;72.20
67273;DHT22;54190;49.770;9.250;2022-08-01T14:37:46;28.50;72.40
67273;DHT22;54190;49.770;9.250;2022-08-01T14:40:12;28.40;74.90
67273;DHT22;54190;49.770;9.250;2022-08-01T14:42:38;28.40;72.70
67273;DHT22;54190;49.770;9.250;2022-08-01T14:45:05;28.30;72.70
67273;DHT22;54190;49.770;9.250;2022-08-01T14:47:39;28.30;73.50
67273;DHT22;54190;49.770;9.250;2022-08-01T14:50:08;28.30;72.00
67273;DHT22;54190;49.770;9.250;2022-08-01T14:52:35;28.30;69.30
67273;DHT22;54190;49.770;9.250;2022-08-01T14:55:02;28.20;70.50
67273;DHT22;54190;49.770;9.250;2022-08-01T14:57:28;28.30;69.80
67273;DHT22;54190;49.770;9.250;2022-08-01T14:59:54;28.30;67.50
67273;DHT22;54190;49.770;9.250;2022-08-01T15:02:20;28.40;67.90
67273;DHT22;54190;49.770;9.250;2022-08-01T15:04:47;28.60;69.10
67273;DHT22;54190;49.770;9.250;2022-08-01T15:07:14;28.70;66.40
67273;DHT22;54190;49.770;9.250;2022-08-01T15:09:40;28.80;67.70
67273;DHT22;54190;49.770;9.250;2022-08-01T15:12:06;28.90;66.40
67273;DHT22;54190;49.770;9.250;2022-08-01T15:14:32;29.00;67.50
67273;DHT22;54190;49.770;9.250;2022-08-01T15:17:29;29.10;63.50
67273;DHT22;54190;49.770;9.250;2022-08-01T15:19:59;29.00;60.10
67273;DHT22;54190;49.770;9.250;2022-08-01T15:22:26;28.90;60.00
67273;DHT22;54190;49.770;9.250;2022-08-01T15:24:54;28.80;62.20
67273;DHT22;54190;49.770;9.250;2022-08-01T15:27:20;28.70;62.50
67273;DHT22;54190;49.770;9.250;2022-08-01T15:29:47;28.60;64.20
67273;DHT22;54190;49.770;9.250;2022-08-01T15:32:13;28.60;65.10
67273;DHT22;54190;49.770;9.250;2022-08-01T15:34:40;28.50;65.50
67273;DHT22;54190;49.770;9.250;2022-08-01T15:37:06;28.40;62.30
67273;DHT22;54190;49.770;9.250;2022-08-01T15:39:33;28.40;63.80
67273;DHT22;54190;49.770;9.250;2022-08-01T15:42:02;28.40;66.80
67273;DHT22;54190;49.770;9.250;2022-08-01T15:44:29;28.50;67.30
67273;DHT22;54190;49.770;9.250;2022-08-01T15:46:55;28.50;67.70
67273;DHT22;54190;49.770;9.250;2022-08-01T15:49:20;28.60;64.40
67273;DHT22;54190;49.770;9.250;2022-08-01T15:51:48;28.60;62.50
67273;DHT22;54190;49.770;9.250;2022-08-01T15:54:14;28.50;63.50
67273;DHT22;54190;49.770;9.250;2022-08-01T15:56:39;28.40;63.80
67273;DHT22;54190;49.770;9.250;2022-08-01T15:59:05;28.30;64.60
67273;DHT22;54190;49.770;9.250;2022-08-01T16:01:31;28.20;65.90
67273;DHT22;54190;49.770;9.250;2022-08-01T16:03:58;28.20;66.60
67273;DHT22;54190;49.770;9.250;2022-08-01T16:06:24;28.20;66.20